createdAt,value
2018-08-06T00:00:24.215Z,9.13
2018-08-06T00:02:53.276Z,9.50
2018-08-06T00:05:22.320Z,9.73
2018-08-06T00:07:51.141Z,9.33
2018-08-06T00:10:22.228Z,9.63
2018-08-06T00:12:51.251Z,9.60
2018-08-06T00:15:20.271Z,9.53
2018-08-06T00:17:49.177Z,9.50
2018-08-06T00:20:18.067Z,10.10
2018-08-06T00:22:47.060Z,9.13
2018-08-06T00:25:16.784Z,10.60
2018-08-06T00:27:45.966Z,9.97
2018-08-06T00:30:16.160Z,9.90
2018-08-06T00:32:46.248Z,10.20
2018-08-06T00:35:15.556Z,10.70
2018-08-06T00:37:44.496Z,9.17
2018-08-06T00:40:15.167Z,9.40
2018-08-06T00:43:02.804Z,9.33
2018-08-06T00:45:31.805Z,10.40
2018-08-06T00:48:01.079Z,9.50
2018-08-06T00:50:30.491Z,9.90
2018-08-06T00:52:59.477Z,9.80
2018-08-06T00:55:28.664Z,10.90
2018-08-06T00:57:57.737Z,10.33
2018-08-06T01:00:26.638Z,10.50
2018-08-06T01:02:55.667Z,10.33
2018-08-06T01:05:24.575Z,9.27
2018-08-06T01:07:53.515Z,9.43
2018-08-06T01:10:22.339Z,9.33
2018-08-06T01:12:51.385Z,9.87
2018-08-06T01:15:20.358Z,10.03
2018-08-06T01:17:49.269Z,10.50
2018-08-06T01:20:18.030Z,9.83
2018-08-06T01:22:46.932Z,10.50
2018-08-06T01:25:16.249Z,9.97
2018-08-06T01:27:45.446Z,10.33
2018-08-06T01:30:15.054Z,10.00
2018-08-06T01:32:44.314Z,9.87
2018-08-06T01:35:13.471Z,11.27
2018-08-06T01:37:42.511Z,10.50
2018-08-06T01:40:14.401Z,10.37
2018-08-06T01:42:50.022Z,10.30
2018-08-06T01:45:19.208Z,10.40
2018-08-06T01:47:48.137Z,9.67
2018-08-06T01:50:17.268Z,10.87
2018-08-06T01:52:46.328Z,10.30
2018-08-06T01:55:15.496Z,9.70
2018-08-06T01:57:44.705Z,10.07
2018-08-06T02:00:14.752Z,10.30
2018-08-06T02:02:44.042Z,11.47
2018-08-06T02:05:13.210Z,10.83
2018-08-06T02:07:42.313Z,11.77
2018-08-06T02:10:12.973Z,10.83
2018-08-06T02:12:42.518Z,11.43
2018-08-06T02:15:12.046Z,11.80
2018-08-06T02:17:41.227Z,10.90
2018-08-06T02:20:11.399Z,11.13
2018-08-06T02:22:40.298Z,10.57
2018-08-06T02:25:10.189Z,11.73
2018-08-06T02:27:39.448Z,11.20
2018-08-06T02:30:09.987Z,10.60
2018-08-06T02:32:39.219Z,11.23
2018-08-06T02:35:08.963Z,11.30
2018-08-06T02:37:38.115Z,10.93
2018-08-06T02:40:08.048Z,11.37
2018-08-06T02:42:37.089Z,10.83
2018-08-06T02:45:06.308Z,10.87
2018-08-06T02:47:35.117Z,10.67
2018-08-06T02:50:03.777Z,10.63
2018-08-06T02:52:33.009Z,10.97
2018-08-06T02:55:02.144Z,10.97
2018-08-06T02:57:31.110Z,10.73
2018-08-06T03:00:00.241Z,10.87
2018-08-06T03:02:29.278Z,11.33
2018-08-06T03:04:58.648Z,10.73
2018-08-06T03:07:27.660Z,10.87
2018-08-06T03:09:56.782Z,11.87
2018-08-06T03:12:25.657Z,11.17
2018-08-06T03:14:55.075Z,10.90
2018-08-06T03:17:24.292Z,11.37
2018-08-06T03:19:53.367Z,11.80
2018-08-06T03:22:22.262Z,11.93
2018-08-06T03:24:51.750Z,11.30
2018-08-06T03:27:20.636Z,10.57
2018-08-06T03:29:49.532Z,11.07
2018-08-06T03:32:18.417Z,11.87
2018-08-06T03:34:47.621Z,10.93
2018-08-06T03:37:16.874Z,11.10
2018-08-06T03:39:45.934Z,11.03
2018-08-06T03:42:14.918Z,11.37
2018-08-06T03:44:44.001Z,11.63
2018-08-06T03:47:13.162Z,11.13
2018-08-06T03:49:42.403Z,10.90
2018-08-06T03:52:11.494Z,11.73
2018-08-06T03:54:40.367Z,11.47
2018-08-06T03:57:09.368Z,11.23
2018-08-06T03:59:38.369Z,11.07
2018-08-06T04:02:07.139Z,10.57
2018-08-06T04:04:36.348Z,11.27
2018-08-06T04:07:05.219Z,10.93
2018-08-06T04:09:34.450Z,11.03
2018-08-06T04:12:03.234Z,9.90
2018-08-06T04:14:32.319Z,11.57
2018-08-06T04:17:01.334Z,11.23
2018-08-06T04:19:30.521Z,11.50
2018-08-06T04:21:59.317Z,12.13
2018-08-06T04:24:28.172Z,10.90
2018-08-06T04:26:57.090Z,11.40
2018-08-06T04:29:26.142Z,10.90
2018-08-06T04:31:54.871Z,11.47
2018-08-06T04:34:24.340Z,12.10
2018-08-06T04:36:53.229Z,12.13
2018-08-06T04:39:22.253Z,12.37
2018-08-06T04:41:51.443Z,11.37
2018-08-06T04:44:20.295Z,12.17
2018-08-06T04:46:49.346Z,11.87
2018-08-06T04:49:18.152Z,12.03
2018-08-06T04:51:47.209Z,11.73
2018-08-06T04:54:16.111Z,13.90
2018-08-06T04:56:45.008Z,14.47
2018-08-06T04:59:13.999Z,15.83
2018-08-06T05:01:43.014Z,19.43
2018-08-06T05:04:12.194Z,17.60
2018-08-06T05:06:41.269Z,18.57
2018-08-06T05:09:11.424Z,16.87
2018-08-06T05:11:40.587Z,16.37
2018-08-06T05:14:09.553Z,15.43
2018-08-06T05:16:38.625Z,13.67
2018-08-06T05:19:08.016Z,12.90
2018-08-06T05:21:36.888Z,12.10
2018-08-06T05:24:06.320Z,13.03
2018-08-06T05:26:35.161Z,12.73
2018-08-06T05:29:04.119Z,12.83
2018-08-06T05:31:32.955Z,13.77
2018-08-06T05:34:02.141Z,12.43
2018-08-06T05:36:31.123Z,13.90
2018-08-06T05:39:00.041Z,14.43
2018-08-06T05:41:28.866Z,14.57
2018-08-06T05:43:58.135Z,15.87
2018-08-06T05:46:27.179Z,15.07
2018-08-06T05:48:56.190Z,15.07
2018-08-06T05:51:25.165Z,17.33
2018-08-06T05:53:54.300Z,14.37
2018-08-06T05:56:23.861Z,15.10
2018-08-06T05:58:53.436Z,15.50
2018-08-06T06:01:22.060Z,15.20
2018-08-06T06:03:50.847Z,16.70
2018-08-06T06:06:20.126Z,17.43
2018-08-06T06:08:49.033Z,15.70
2018-08-06T06:11:17.673Z,15.53
2018-08-06T06:13:46.552Z,16.73
2018-08-06T06:16:15.282Z,16.97
2018-08-06T06:18:44.258Z,15.40
2018-08-06T06:21:13.033Z,14.97
2018-08-06T06:23:41.805Z,14.97
2018-08-06T06:26:10.994Z,14.50
2018-08-06T06:28:39.477Z,13.47
2018-08-06T06:31:08.132Z,12.87
2018-08-06T06:33:36.541Z,13.40
2018-08-06T06:36:05.295Z,14.30
2018-08-06T06:38:33.793Z,12.83
2018-08-06T06:41:02.463Z,13.43
2018-08-06T06:43:37.599Z,12.63
2018-08-06T06:46:06.281Z,13.33
2018-08-06T06:48:34.882Z,11.53
2018-08-06T06:51:03.416Z,11.07
2018-08-06T06:53:31.982Z,11.93
2018-08-06T06:56:00.621Z,11.30
2018-08-06T06:58:29.370Z,12.23
2018-08-06T07:00:58.001Z,11.53
2018-08-06T07:03:26.674Z,10.83
2018-08-06T07:05:55.343Z,10.27
2018-08-06T07:08:24.055Z,10.37
2018-08-06T07:10:52.728Z,9.20
2018-08-06T07:13:21.231Z,8.70
2018-08-06T07:15:49.995Z,8.30
2018-08-06T07:18:18.693Z,9.13
2018-08-06T07:20:47.221Z,9.23
2018-08-06T07:23:15.849Z,11.13
2018-08-06T07:25:44.532Z,11.10
2018-08-06T07:28:13.221Z,10.20
2018-08-06T07:30:41.800Z,10.53
2018-08-06T07:33:10.367Z,11.03
2018-08-06T07:35:39.068Z,10.50
2018-08-06T07:38:07.757Z,11.67
2018-08-06T07:40:36.541Z,10.63
2018-08-06T07:43:05.250Z,9.53
2018-08-06T07:45:34.167Z,9.40
2018-08-06T07:48:02.906Z,8.53
2018-08-06T07:50:31.516Z,9.20
2018-08-06T07:53:00.072Z,9.07
2018-08-06T07:55:28.867Z,9.63
2018-08-06T07:57:57.550Z,10.40
2018-08-06T08:00:26.337Z,9.57
2018-08-06T08:02:54.755Z,9.90
2018-08-06T08:05:23.394Z,9.87
2018-08-06T08:07:52.079Z,10.17
2018-08-06T08:10:23.573Z,10.50
2018-08-06T08:12:52.318Z,9.57
2018-08-06T08:15:23.871Z,10.13
2018-08-06T08:17:52.528Z,10.07
2018-08-06T08:20:21.534Z,10.20
2018-08-06T08:22:50.238Z,9.47
2018-08-06T08:25:20.300Z,10.13
2018-08-06T08:27:49.042Z,9.77
2018-08-06T08:30:18.268Z,10.50
2018-08-06T08:32:46.920Z,10.73
2018-08-06T08:35:15.719Z,11.13
2018-08-06T08:37:44.411Z,11.60
2018-08-06T08:40:16.580Z,11.50
2018-08-06T08:42:45.351Z,10.93
2018-08-06T08:45:14.753Z,11.13
2018-08-06T08:47:44.262Z,9.60
2018-08-06T08:50:13.765Z,10.37
2018-08-06T08:52:42.514Z,10.23
2018-08-06T08:55:11.758Z,10.07
2018-08-06T08:57:40.432Z,10.00
2018-08-06T09:00:13.841Z,10.00
2018-08-06T09:02:43.331Z,9.93
2018-08-06T09:05:12.121Z,9.20
2018-08-06T09:07:41.213Z,8.90
2018-08-06T09:10:10.859Z,9.20
2018-08-06T09:12:39.918Z,8.67
2018-08-06T09:15:15.780Z,8.20
2018-08-06T09:17:44.667Z,8.37
2018-08-06T09:20:13.358Z,8.07
2018-08-06T09:22:43.021Z,7.90
2018-08-06T09:25:12.405Z,8.00
2018-08-06T09:27:44.324Z,7.53
2018-08-06T09:30:14.479Z,8.50
2018-08-06T09:32:44.674Z,7.90
2018-08-06T09:35:14.099Z,7.33
2018-08-06T09:37:43.062Z,8.13
2018-08-06T09:40:19.228Z,8.23
2018-08-06T09:42:48.721Z,8.27
2018-08-06T09:45:18.474Z,8.17
2018-08-06T09:47:48.216Z,7.50
2018-08-06T09:50:17.599Z,9.30
2018-08-06T09:52:47.260Z,8.10
2018-08-06T09:55:25.011Z,8.70
2018-08-06T09:57:53.990Z,8.77
2018-08-06T10:00:28.471Z,8.00
2018-08-06T10:02:58.586Z,8.47
2018-08-06T10:05:27.897Z,8.10
2018-08-06T10:07:56.672Z,8.77
2018-08-06T10:10:25.402Z,8.80
2018-08-06T10:12:54.248Z,10.27
2018-08-06T10:15:22.936Z,8.57
2018-08-06T10:17:53.719Z,8.77
2018-08-06T10:20:23.430Z,8.37
2018-08-06T10:22:52.112Z,8.30
2018-08-06T10:25:20.743Z,8.33
2018-08-06T10:27:49.537Z,8.50
2018-08-06T10:30:19.436Z,8.60
2018-08-06T10:32:48.251Z,8.60
2018-08-06T10:35:17.698Z,9.30
2018-08-06T10:37:46.637Z,9.40
2018-08-06T10:40:16.867Z,8.47
2018-08-06T10:42:45.853Z,9.37
2018-08-06T10:45:21.521Z,8.57
2018-08-06T10:47:50.516Z,8.90
2018-08-06T10:50:19.283Z,8.80
2018-08-06T10:52:47.956Z,9.47
2018-08-06T10:55:17.023Z,9.10
2018-08-06T10:57:46.006Z,9.10
2018-08-06T11:00:16.442Z,9.77
2018-08-06T11:02:45.200Z,9.83
2018-08-06T11:05:14.882Z,9.33
2018-08-06T11:07:43.770Z,9.33
2018-08-06T11:10:16.326Z,9.23
2018-08-06T11:12:45.021Z,9.70
2018-08-06T11:15:15.320Z,8.80
2018-08-06T11:17:44.261Z,8.80
2018-08-06T11:20:14.368Z,8.83
2018-08-06T11:22:43.242Z,8.73
2018-08-06T11:25:12.645Z,8.97
2018-08-06T11:27:41.434Z,9.90
2018-08-06T11:30:10.869Z,9.53
2018-08-06T11:32:39.941Z,9.80
2018-08-06T11:35:09.239Z,8.83
2018-08-06T11:37:37.813Z,8.87
2018-08-06T11:40:07.114Z,8.87
2018-08-06T11:42:35.832Z,7.97
2018-08-06T11:45:04.693Z,8.83
2018-08-06T11:47:33.410Z,8.33
2018-08-06T11:50:02.276Z,9.00
2018-08-06T11:52:30.944Z,8.50
2018-08-06T11:54:59.635Z,8.03
2018-08-06T11:57:28.355Z,9.00
2018-08-06T11:59:57.116Z,7.65
2018-08-06T12:02:26.305Z,8.60
2018-08-06T12:04:54.992Z,8.68
2018-08-06T12:07:23.911Z,8.23
2018-08-06T12:09:53.007Z,8.60
2018-08-06T12:12:21.765Z,7.65
2018-08-06T12:14:50.359Z,8.80
2018-08-06T12:17:19.140Z,9.10
2018-08-06T12:19:47.993Z,8.60
2018-08-06T12:22:16.716Z,9.08
2018-08-06T12:24:45.500Z,8.58
2018-08-06T12:27:14.545Z,9.28
2018-08-06T12:29:43.207Z,9.68
2018-08-06T12:32:11.974Z,9.48
2018-08-06T12:34:40.649Z,9.13
2018-08-06T12:37:09.385Z,9.77
2018-08-06T12:39:37.918Z,8.53
2018-08-06T12:42:06.698Z,9.90
2018-08-06T12:44:35.491Z,9.63
2018-08-06T12:47:04.263Z,9.67
2018-08-06T12:49:32.910Z,10.60
2018-08-06T12:52:01.797Z,10.30
2018-08-06T12:54:30.674Z,9.73
2018-08-06T12:56:59.376Z,10.07
2018-08-06T12:59:28.028Z,10.10
2018-08-06T13:01:56.700Z,9.90
2018-08-06T13:04:25.390Z,9.93
2018-08-06T13:06:53.970Z,10.80
2018-08-06T13:09:22.687Z,9.97
2018-08-06T13:11:51.453Z,10.87
2018-08-06T13:14:20.131Z,10.23
2018-08-06T13:16:49.430Z,9.73
2018-08-06T13:19:18.116Z,9.03
2018-08-06T13:21:46.726Z,9.23
2018-08-06T13:24:15.791Z,8.83
2018-08-06T13:26:44.534Z,10.57
2018-08-06T13:29:13.266Z,10.53
2018-08-06T13:31:42.057Z,10.00
2018-08-06T13:34:10.723Z,9.83
2018-08-06T13:36:39.510Z,9.50
2018-08-06T13:39:08.849Z,9.20
2018-08-06T13:41:37.654Z,8.57
2018-08-06T13:44:06.444Z,9.00
2018-08-06T13:46:35.212Z,8.87
2018-08-06T13:49:04.120Z,9.27
2018-08-06T13:51:33.173Z,8.60
2018-08-06T13:54:01.767Z,8.37
2018-08-06T13:56:30.547Z,8.10
2018-08-06T13:58:59.131Z,8.57
2018-08-06T14:01:27.916Z,8.93
2018-08-06T14:03:56.531Z,7.60
2018-08-06T14:06:25.392Z,8.40
2018-08-06T14:08:54.084Z,8.90
2018-08-06T14:11:22.926Z,9.20
2018-08-06T14:13:51.795Z,8.90
2018-08-06T14:16:20.545Z,8.30
2018-08-06T14:18:49.154Z,8.23
2018-08-06T14:21:17.809Z,6.97
2018-08-06T14:23:46.663Z,6.70
2018-08-06T14:26:15.590Z,8.20
2018-08-06T14:28:44.292Z,7.33
2018-08-06T14:31:13.064Z,7.07
2018-08-06T14:33:41.689Z,8.13
2018-08-06T14:36:10.454Z,7.63
2018-08-06T14:38:39.226Z,8.23
2018-08-06T14:41:07.907Z,7.53
2018-08-06T14:43:36.593Z,8.37
2018-08-06T14:46:05.643Z,7.80
2018-08-06T14:48:34.510Z,7.90
2018-08-06T14:51:03.196Z,7.07
2018-08-06T14:53:31.947Z,8.37
2018-08-06T14:56:00.555Z,7.53
2018-08-06T14:58:29.423Z,7.60
2018-08-06T15:00:58.654Z,7.23
2018-08-06T15:03:27.406Z,6.90
2018-08-06T15:05:56.095Z,7.70
2018-08-06T15:08:24.880Z,7.33
2018-08-06T15:10:53.534Z,7.53
2018-08-06T15:13:22.253Z,7.13
2018-08-06T15:15:50.937Z,7.27
2018-08-06T15:18:19.731Z,6.93
2018-08-06T15:20:48.334Z,6.77
2018-08-06T15:23:17.094Z,7.43
2018-08-06T15:25:45.711Z,7.87
2018-08-06T15:28:14.467Z,6.77
2018-08-06T15:30:43.193Z,6.70
2018-08-06T15:33:12.041Z,6.40
2018-08-06T15:35:40.935Z,6.30
2018-08-06T15:38:09.691Z,6.17
2018-08-06T15:40:38.346Z,6.80
2018-08-06T15:43:07.091Z,6.77
2018-08-06T15:45:35.780Z,6.07
2018-08-06T15:48:04.434Z,6.63
2018-08-06T15:50:33.249Z,6.93
2018-08-06T15:53:02.072Z,5.87
2018-08-06T15:55:30.931Z,6.37
2018-08-06T15:57:59.554Z,7.47
2018-08-06T16:00:28.402Z,7.23
2018-08-06T16:02:57.222Z,6.40
2018-08-06T16:05:25.977Z,6.33
2018-08-06T16:07:54.800Z,5.60
2018-08-06T16:10:23.859Z,6.00
2018-08-06T16:12:52.475Z,7.23
2018-08-06T16:15:20.956Z,6.40
2018-08-06T16:17:49.712Z,7.33
2018-08-06T16:20:18.832Z,7.23
2018-08-06T16:22:47.691Z,7.07
2018-08-06T16:25:16.388Z,6.80
2018-08-06T16:27:45.010Z,7.40
2018-08-06T16:30:16.632Z,6.83
2018-08-06T16:32:46.332Z,6.70
2018-08-06T16:35:15.893Z,6.67
2018-08-06T16:37:44.549Z,6.50
2018-08-06T16:40:13.965Z,6.60
2018-08-06T16:42:42.815Z,7.50
2018-08-06T16:45:11.564Z,6.23
2018-08-06T16:47:40.314Z,6.73
2018-08-06T16:50:10.230Z,6.33
2018-08-06T16:52:39.154Z,6.67
2018-08-06T16:55:08.210Z,7.43
2018-08-06T16:57:36.972Z,7.57
2018-08-06T17:00:06.374Z,6.77
2018-08-06T17:02:35.079Z,7.40
2018-08-06T17:05:03.948Z,7.83
2018-08-06T17:07:32.390Z,7.77
2018-08-06T17:10:01.115Z,8.13
2018-08-06T17:12:32.821Z,6.70
2018-08-06T17:15:01.471Z,7.80
2018-08-06T17:17:30.285Z,7.83
2018-08-06T17:19:59.038Z,7.77
2018-08-06T17:22:27.725Z,6.77
2018-08-06T17:24:56.553Z,7.17
2018-08-06T17:27:25.436Z,8.17
2018-08-06T17:29:54.080Z,8.17
2018-08-06T17:32:22.765Z,7.27
2018-08-06T17:34:51.378Z,7.53
2018-08-06T17:37:20.148Z,7.77
2018-08-06T17:39:48.751Z,7.30
2018-08-06T17:42:17.454Z,7.30
2018-08-06T17:44:46.294Z,6.93
2018-08-06T17:47:14.922Z,6.67
2018-08-06T17:49:43.882Z,6.90
2018-08-06T17:52:12.492Z,6.40
2018-08-06T17:54:41.553Z,7.50
2018-08-06T17:57:10.300Z,7.13
2018-08-06T17:59:39.021Z,8.20
2018-08-06T18:02:07.634Z,7.93
2018-08-06T18:04:36.422Z,7.83
2018-08-06T18:07:05.824Z,7.93
2018-08-06T18:09:34.582Z,8.07
2018-08-06T18:12:03.268Z,7.97
2018-08-06T18:14:31.872Z,7.20
2018-08-06T18:17:00.744Z,7.87
2018-08-06T18:19:29.351Z,7.93
2018-08-06T18:21:58.124Z,7.33
2018-08-06T18:24:26.797Z,6.93
2018-08-06T18:26:55.484Z,6.97
2018-08-06T18:29:24.167Z,6.80
2018-08-06T18:31:52.853Z,7.17
2018-08-06T18:34:21.538Z,7.40
2018-08-06T18:36:50.272Z,7.40
2018-08-06T18:39:19.236Z,7.53
2018-08-06T18:41:48.051Z,8.00
2018-08-06T18:44:16.810Z,8.03
2018-08-06T18:46:45.683Z,8.57
2018-08-06T18:49:14.375Z,9.53
2018-08-06T18:51:43.056Z,9.30
2018-08-06T18:54:11.670Z,9.70
2018-08-06T18:56:40.424Z,9.67
2018-08-06T18:59:09.008Z,10.00
2018-08-06T19:01:37.625Z,10.47
2018-08-06T19:04:06.487Z,10.57
2018-08-06T19:06:35.171Z,10.47
2018-08-06T19:09:04.262Z,10.80
2018-08-06T19:11:32.950Z,10.60
2018-08-06T19:14:07.068Z,9.63
2018-08-06T19:16:35.957Z,10.97
2018-08-06T19:19:09.858Z,10.97
2018-08-06T19:21:38.481Z,11.43
2018-08-06T19:24:12.658Z,11.20
2018-08-06T19:26:41.238Z,11.83
2018-08-06T19:29:09.829Z,11.40
2018-08-06T19:31:38.644Z,12.03
2018-08-06T19:34:07.232Z,11.80
2018-08-06T19:36:41.204Z,13.17
2018-08-06T19:39:10.707Z,17.03
2018-08-06T19:41:39.554Z,18.20
2018-08-06T19:44:08.286Z,17.83
2018-08-06T19:46:37.020Z,21.47
2018-08-06T19:49:11.752Z,23.57
2018-08-06T19:51:40.618Z,19.53
2018-08-06T19:54:09.538Z,17.80
2018-08-06T19:56:38.207Z,19.03
2018-08-06T19:59:07.687Z,16.57
2018-08-06T20:01:36.556Z,14.73
2018-08-06T20:04:05.349Z,13.93
2018-08-06T20:06:34.038Z,15.00
2018-08-06T20:09:02.714Z,13.83
2018-08-06T20:11:31.399Z,13.30
2018-08-06T20:14:00.084Z,14.43
2018-08-06T20:16:28.873Z,11.63
2018-08-06T20:18:57.307Z,11.87
2018-08-06T20:21:26.145Z,11.17
2018-08-06T20:23:55.157Z,11.60
2018-08-06T20:26:23.917Z,10.50
2018-08-06T20:28:52.709Z,11.17
2018-08-06T20:31:21.288Z,10.13
2018-08-06T20:33:49.881Z,11.30
2018-08-06T20:36:18.868Z,9.50
2018-08-06T20:38:47.447Z,10.70
2018-08-06T20:41:16.056Z,11.07
2018-08-06T20:43:44.836Z,11.90
2018-08-06T20:46:13.526Z,11.13
2018-08-06T20:48:42.263Z,9.23
2018-08-06T20:51:10.914Z,9.07
2018-08-06T20:53:39.676Z,8.97
2018-08-06T20:56:08.355Z,8.37
2018-08-06T20:58:37.037Z,9.67
2018-08-06T21:01:05.854Z,8.70
2018-08-06T21:03:34.613Z,8.60
2018-08-06T21:06:03.300Z,8.53
2018-08-06T21:08:31.889Z,9.90
2018-08-06T21:11:00.572Z,8.60
2018-08-06T21:13:29.255Z,9.10
2018-08-06T21:15:57.937Z,10.20
2018-08-06T21:18:26.828Z,8.97
2018-08-06T21:20:55.439Z,10.13
2018-08-06T21:23:24.101Z,10.90
2018-08-06T21:25:52.681Z,10.30
2018-08-06T21:28:21.467Z,10.57
2018-08-06T21:30:50.153Z,10.80
2018-08-06T21:33:18.878Z,12.20
2018-08-06T21:35:47.670Z,11.20
2018-08-06T21:38:16.525Z,10.13
2018-08-06T21:40:45.304Z,10.97
2018-08-06T21:43:13.886Z,10.47
2018-08-06T21:45:42.748Z,12.90
2018-08-06T21:48:11.779Z,12.70
2018-08-06T21:50:40.416Z,12.07
2018-08-06T21:53:09.157Z,12.07
2018-08-06T21:55:37.967Z,13.10
2018-08-06T21:58:06.726Z,13.67
2018-08-06T22:00:36.910Z,13.57
2018-08-06T22:03:07.110Z,14.97
2018-08-06T22:05:36.312Z,14.77
2018-08-06T22:08:05.144Z,17.10
2018-08-06T22:10:34.047Z,15.27
2018-08-06T22:13:02.927Z,11.97
2018-08-06T22:15:31.614Z,10.70
2018-08-06T22:18:00.553Z,11.33
2018-08-06T22:20:29.291Z,10.57
2018-08-06T22:22:57.909Z,11.53
2018-08-06T22:25:26.867Z,10.73
2018-08-06T22:27:55.550Z,10.23
2018-08-06T22:30:24.190Z,11.57
2018-08-06T22:32:52.998Z,10.67
2018-08-06T22:35:21.958Z,10.33
2018-08-06T22:37:50.721Z,10.50
2018-08-06T22:40:19.451Z,11.30
2018-08-06T22:42:48.193Z,10.53
2018-08-06T22:45:17.079Z,10.67
2018-08-06T22:47:46.057Z,10.13
2018-08-06T22:50:14.879Z,10.23
2018-08-06T22:52:43.737Z,9.57
2018-08-06T22:55:12.947Z,11.30
2018-08-06T22:57:42.455Z,14.70
2018-08-06T23:00:12.513Z,13.67
2018-08-06T23:02:41.471Z,12.27
2018-08-06T23:05:10.775Z,11.03
2018-08-06T23:07:39.967Z,10.20
2018-08-06T23:10:09.887Z,9.87
2018-08-06T23:12:39.057Z,8.63
2018-08-06T23:15:09.310Z,9.80
2018-08-06T23:17:38.486Z,9.07
2018-08-06T23:20:07.876Z,9.63
2018-08-06T23:22:36.771Z,8.93
2018-08-06T23:25:06.192Z,10.55
2018-08-06T23:27:34.953Z,9.40
2018-08-06T23:30:03.762Z,8.67
2018-08-06T23:32:32.531Z,9.30
2018-08-06T23:35:01.261Z,9.33
2018-08-06T23:37:29.922Z,9.60
2018-08-06T23:39:58.690Z,10.57
2018-08-06T23:42:27.581Z,11.07
2018-08-06T23:44:56.205Z,9.70
2018-08-06T23:47:24.962Z,9.23
2018-08-06T23:49:53.784Z,8.93
2018-08-06T23:52:22.736Z,9.63
2018-08-06T23:54:51.662Z,9.37
2018-08-06T23:57:20.440Z,10.10
2018-08-06T23:59:49.234Z,9.47
